Time;durP1;ratioP1;P1;durP2;ratioP2;P2;SDS_P1;SDS_P2;PMS_P1;PMS_P2;Temp;Humidity;BMP_temperature;BMP_pressure;BME280_temperature;BME280_humidity;BME280_pressure;Samples;Min_cycle;Max_cycle;Signal;HPM_P1;HPM_P2
2022/06/01 00:00:37;;;;;;;4.78;1.92;;;15.90;99.90;;;;;;4194051;28;20527;-43
2022/06/01 00:02:58;;;;;;;2.55;2.00;;;15.80;99.90;;;;;;4193755;28;20105;-44
2022/06/01 00:05:22;;;;;;;2.95;1.92;;;15.70;99.90;;;;;;4177762;28;20106;-43
2022/06/01 00:07:43;;;;;;;3.13;2.08;;;15.60;99.90;;;;;;4189396;28;20098;-44
2022/06/01 00:10:05;;;;;;;13.25;3.15;;;15.60;99.90;;;;;;4194307;28;20059;-44
2022/06/01 00:12:29;;;;;;;7.88;2.53;;;15.60;99.90;;;;;;4193562;28;20098;-43
2022/06/01 00:14:50;;;;;;;1.90;1.80;;;15.50;99.90;;;;;;4188992;28;20059;-43
2022/06/01 00:17:10;;;;;;;4.80;1.85;;;15.60;99.90;;;;;;4193243;28;20120;-43
2022/06/01 00:19:31;;;;;;;3.42;2.22;;;15.60;99.90;;;;;;4193871;28;20083;-43
2022/06/01 00:24:32;;;;;;;6.35;1.67;;;15.60;99.90;;;;;;4176574;28;20055;-43
2022/06/01 00:26:52;;;;;;;2.35;2.17;;;15.70;99.90;;;;;;4189282;28;20051;-44
2022/06/01 00:29:13;;;;;;;4.57;2.08;;;15.70;99.90;;;;;;4182461;28;20060;-43
2022/06/01 00:31:34;;;;;;;2.53;2.28;;;15.70;99.90;;;;;;4193846;28;20109;-43
2022/06/01 00:33:55;;;;;;;7.45;2.33;;;15.50;99.90;;;;;;4177124;28;20044;-44
2022/06/01 00:36:15;;;;;;;3.55;2.17;;;15.60;99.90;;;;;;4187550;28;20565;-43
2022/06/01 00:38:36;;;;;;;2.15;1.45;;;15.40;99.90;;;;;;4193780;28;20039;-44
2022/06/01 00:40:57;;;;;;;3.97;2.30;;;15.40;99.90;;;;;;4193897;28;20141;-43
2022/06/01 00:43:23;;;;;;;2.35;2.13;;;15.40;99.90;;;;;;4193302;28;20105;-45
2022/06/01 00:45:44;;;;;;;3.13;1.73;;;15.40;99.90;;;;;;4196440;28;20098;-43
2022/06/01 00:48:05;;;;;;;2.25;1.92;;;15.30;99.90;;;;;;4196139;28;20153;-43
2022/06/01 00:50:31;;;;;;;5.00;2.35;;;15.20;99.90;;;;;;4186125;28;20133;-43
2022/06/01 00:53:17;;;;;;;4.00;2.40;;;15.20;99.90;;;;;;4196129;28;20050;-43
2022/06/01 00:55:44;;;;;;;3.85;1.60;;;15.30;99.90;;;;;;4196743;28;20407;-43
2022/06/01 00:58:12;;;;;;;5.40;2.33;;;15.30;99.90;;;;;;4195477;28;20047;-45
2022/06/01 01:00:38;;;;;;;5.65;2.00;;;15.40;99.90;;;;;;4196513;28;20415;-44
2022/06/01 01:03:04;;;;;;;7.18;2.85;;;15.30;99.90;;;;;;4196811;28;20043;-43
2022/06/01 01:05:27;;;;;;;4.38;2.75;;;15.20;99.90;;;;;;4196221;28;20124;-43
2022/06/01 01:07:51;;;;;;;8.40;2.58;;;15.20;99.90;;;;;;4196456;28;20059;-43
2022/06/01 01:10:14;;;;;;;4.80;1.80;;;15.20;99.90;;;;;;4192985;28;20120;-43
2022/06/01 01:15:15;;;;;;;5.65;2.22;;;15.20;99.90;;;;;;4180081;28;20107;-43
2022/06/01 01:17:37;;;;;;;1.92;1.75;;;15.10;99.90;;;;;;4188735;28;20052;-43
2022/06/01 01:19:58;;;;;;;2.88;2.13;;;15.20;99.90;;;;;;4196626;28;20039;-43
2022/06/01 01:22:22;;;;;;;2.25;2.13;;;15.10;99.90;;;;;;4195875;28;20141;-44
2022/06/01 01:25:04;;;;;;;3.60;2.50;;;15.10;99.90;;;;;;4196710;28;20109;-44
2022/06/01 01:27:25;;;;;;;3.33;2.78;;;15.00;99.90;;;;;;4196051;28;20431;-44
2022/06/01 01:29:47;;;;;;;4.20;2.35;;;14.90;99.90;;;;;;4196476;28;20058;-44
2022/06/01 01:32:10;;;;;;;2.10;1.85;;;14.90;99.90;;;;;;4195877;28;20051;-44
2022/06/01 01:34:33;;;;;;;2.00;1.90;;;14.90;99.90;;;;;;4179702;28;20052;-44
2022/06/01 01:36:59;;;;;;;2.20;2.10;;;14.90;99.90;;;;;;4190535;28;20060;-44
2022/06/01 01:39:20;;;;;;;2.95;2.67;;;14.90;99.90;;;;;;4196160;28;20083;-45
2022/06/01 01:41:45;;;;;;;2.97;2.20;;;14.90;99.90;;;;;;4195031;28;20166;-43
2022/06/01 01:44:10;;;;;;;2.20;2.00;;;14.60;99.90;;;;;;4189985;28;20102;-43
2022/06/01 01:46:31;;;;;;;2.92;2.30;;;14.60;99.90;;;;;;4195476;28;20138;-43
2022/06/01 01:48:53;;;;;;;4.85;2.42;;;14.60;99.90;;;;;;4195754;28;20043;-44
2022/06/01 01:51:18;;;;;;;4.25;2.55;;;14.60;99.90;;;;;;4179612;28;20677;-42
2022/06/01 01:53:39;;;;;;;4.45;2.13;;;14.60;99.90;;;;;;4179323;28;20056;-44
2022/06/01 01:56:23;;;;;;;4.40;2.55;;;14.70;99.90;;;;;;4189822;28;20140;-45
2022/06/01 01:58:53;;;;;;;2.65;2.25;;;14.70;99.90;;;;;;4195583;28;20087;-44
2022/06/01 02:01:27;;;;;;;4.32;2.33;;;14.80;99.90;;;;;;4195383;28;20153;-43
2022/06/01 02:04:00;;;;;;;2.97;1.92;;;14.80;99.90;;;;;;4195878;28;20420;-43
2022/06/01 02:06:46;;;;;;;2.87;2.47;;;14.80;99.90;;;;;;4182952;28;20066;-44
2022/06/01 02:09:14;;;;;;;2.83;2.33;;;14.70;99.90;;;;;;4193377;28;20281;-44
2022/06/01 02:14:45;;;;;;;5.75;2.55;;;14.60;99.90;;;;;;4195418;28;20078;-45
2022/06/01 02:17:20;;;;;;;3.85;2.97;;;14.60;99.90;;;;;;4193819;28;20056;-44
2022/06/01 02:19:47;;;;;;;6.93;3.70;;;14.60;99.90;;;;;;4195843;28;20503;-44
2022/06/01 02:22:10;;;;;;;6.20;3.95;;;14.60;99.90;;;;;;4194924;28;20094;-45
2022/06/01 02:24:31;;;;;;;5.00;3.50;;;14.70;99.90;;;;;;4195673;28;20071;-44
2022/06/01 02:26:54;;;;;;;8.45;4.60;;;14.70;99.90;;;;;;4195441;28;20166;-44
2022/06/01 02:29:19;;;;;;;7.35;3.67;;;14.70;99.90;;;;;;4195369;28;20051;-46
2022/06/01 02:31:41;;;;;;;14.55;4.10;;;14.70;99.90;;;;;;4194349;28;20444;-45
2022/06/01 02:34:03;;;;;;;10.80;4.78;;;14.60;99.90;;;;;;4194994;28;20067;-44
2022/06/01 02:36:26;;;;;;;10.13;4.93;;;14.70;99.90;;;;;;4195290;28;20051;-44
2022/06/01 02:38:50;;;;;;;7.68;4.10;;;14.80;99.90;;;;;;4195585;28;20079;-43
2022/06/01 02:42:25;;;;;;;5.82;3.15;;;14.70;99.90;;;;;;4195216;28;20078;-43
2022/06/01 02:43:51;;;;;;;7.55;4.57;;;14.70;99.90;;;;;;4194963;28;20059;-43
2022/06/01 02:46:12;;;;;;;4.47;3.20;;;14.80;99.90;;;;;;4194625;28;20063;-45
2022/06/01 02:48:33;;;;;;;60.67;4.97;;;14.80;99.90;;;;;;4194959;28;20554;-44
2022/06/01 02:50:54;;;;;;;2.95;2.80;;;14.70;99.90;;;;;;4194830;28;20061;-43
2022/06/01 02:53:17;;;;;;;3.47;3.22;;;14.70;99.90;;;;;;4194947;28;20051;-43
2022/06/01 02:55:37;;;;;;;10.55;4.55;;;14.60;99.90;;;;;;4194775;28;20169;-43
2022/06/01 02:57:59;;;;;;;4.40;3.15;;;14.70;99.90;;;;;;4194791;28;20403;-43
2022/06/01 03:00:23;;;;;;;6.38;2.97;;;14.60;99.90;;;;;;4195118;28;20407;-44
2022/06/01 03:02:51;;;;;;;3.17;2.88;;;14.60;99.90;;;;;;4194474;28;20118;-43
2022/06/01 03:05:14;;;;;;;3.13;2.97;;;14.60;99.90;;;;;;4194324;28;20087;-43
2022/06/01 03:07:35;;;;;;;3.95;3.15;;;14.50;99.90;;;;;;4194220;28;20055;-42
2022/06/01 03:09:55;;;;;;;5.28;4.97;;;14.30;99.90;;;;;;4194475;28;20132;-44
2022/06/01 03:12:17;;;;;;;3.08;2.88;;;14.30;99.90;;;;;;4193462;28;20134;-44
2022/06/01 03:14:38;;;;;;;6.50;3.37;;;14.40;99.90;;;;;;4194324;28;20055;-44
2022/06/01 03:16:59;;;;;;;2.50;2.30;;;14.30;99.90;;;;;;4194139;28;20289;-43
2022/06/01 03:19:22;;;;;;;3.42;2.90;;;14.40;99.90;;;;;;4194353;28;20412;-45
2022/06/01 03:21:43;;;;;;;3.22;3.03;;;14.30;99.90;;;;;;4194117;28;20138;-42
2022/06/01 03:24:05;;;;;;;3.63;3.30;;;14.30;99.90;;;;;;4194116;28;20055;-44
2022/06/01 03:26:25;;;;;;;3.00;2.80;;;14.30;99.90;;;;;;4194286;28;20109;-44
2022/06/01 03:28:47;;;;;;;3.20;3.08;;;14.20;99.90;;;;;;4194236;28;20051;-45
2022/06/01 03:31:07;;;;;;;5.13;2.75;;;14.10;99.90;;;;;;4194173;28;20067;-44
2022/06/01 03:33:28;;;;;;;5.07;4.00;;;14.00;99.90;;;;;;4194258;28;20059;-45
2022/06/01 03:35:49;;;;;;;25.40;2.92;;;13.90;99.90;;;;;;4177809;28;20043;-44
2022/06/01 03:38:12;;;;;;;4.15;3.83;;;13.80;99.90;;;;;;4189078;28;20055;-43
2022/06/01 03:40:37;;;;;;;24.42;4.07;;;13.80;99.90;;;;;;4194117;28;20051;-45
2022/06/01 03:43:02;;;;;;;3.30;2.50;;;13.70;99.90;;;;;;4194052;28;20051;-44
2022/06/01 03:48:03;;;;;;;2.60;2.28;;;13.80;99.90;;;;;;4191515;28;20055;-43
2022/06/01 03:50:26;;;;;;;4.65;2.92;;;13.60;99.90;;;;;;4193793;28;20054;-44
2022/06/01 03:52:46;;;;;;;4.75;3.67;;;13.50;99.90;;;;;;4193943;28;20124;-44
2022/06/01 03:55:08;;;;;;;4.13;3.80;;;13.50;99.90;;;;;;4194054;28;20050;-44
2022/06/01 03:57:29;;;;;;;4.00;3.63;;;13.60;99.90;;;;;;4193809;28;20043;-45
2022/06/01 03:59:49;;;;;;;4.22;3.13;;;13.60;99.90;;;;;;4193731;28;20102;-46
2022/06/01 04:02:10;;;;;;;3.58;3.42;;;13.70;99.90;;;;;;4194160;28;20133;-45
2022/06/01 04:04:31;;;;;;;4.60;4.28;;;13.80;99.90;;;;;;4177604;28;20133;-45
2022/06/01 04:06:52;;;;;;;31.92;4.10;;;13.80;99.90;;;;;;4188825;28;20050;-45
2022/06/01 04:09:12;;;;;;;6.85;3.85;;;13.70;99.90;;;;;;4181664;28;20102;-44
2022/06/01 04:11:33;;;;;;;9.45;3.95;;;13.70;99.90;;;;;;4193769;28;20056;-46
2022/06/01 04:13:54;;;;;;;11.50;4.30;;;13.70;99.90;;;;;;4177301;28;20059;-44
2022/06/01 04:16:18;;;;;;;5.32;3.15;;;13.60;99.90;;;;;;4186877;28;20078;-45
2022/06/01 04:18:39;;;;;;;37.50;4.47;;;13.60;99.90;;;;;;4192947;28;20079;-44
2022/06/01 04:21:00;;;;;;;7.85;4.03;;;13.60;99.90;;;;;;4193181;28;20120;-46
2022/06/01 04:23:21;;;;;;;49.42;3.83;;;13.60;99.90;;;;;;4192977;28;20128;-44
2022/06/01 04:25:42;;;;;;;69.22;4.00;;;13.60;99.90;;;;;;4192695;28;20059;-45
2022/06/01 04:28:03;;;;;;;27.42;3.58;;;13.60;99.90;;;;;;4191596;28;20515;-45
2022/06/01 04:30:25;;;;;;;10.82;2.70;;;13.60;99.90;;;;;;4192503;28;20135;-45
2022/06/01 04:32:49;;;;;;;29.95;3.67;;;13.60;99.90;;;;;;4194107;28;20411;-47
2022/06/01 04:35:10;;;;;;;92.15;5.03;;;13.60;99.90;;;;;;4190118;28;20047;-45
2022/06/01 04:37:32;;;;;;;14.05;3.47;;;13.60;99.90;;;;;;4192055;28;20051;-44
2022/06/01 04:39:59;;;;;;;12.52;3.30;;;13.70;99.90;;;;;;4193679;28;20140;-44
2022/06/01 04:42:20;;;;;;;4.97;2.53;;;13.80;99.90;;;;;;4193218;28;20094;-45
2022/06/01 04:44:41;;;;;;;17.00;3.03;;;13.90;99.90;;;;;;4193114;28;20064;-44
2022/06/01 04:47:01;;;;;;;2.70;2.60;;;13.90;99.90;;;;;;4193285;28;20110;-44
2022/06/01 04:49:22;;;;;;;17.05;3.67;;;13.90;99.90;;;;;;4193357;28;20059;-44
2022/06/01 04:51:43;;;;;;;20.27;3.00;;;13.90;99.90;;;;;;4193269;28;20046;-44
2022/06/01 04:54:06;;;;;;;73.53;5.18;;;13.80;99.90;;;;;;4193357;28;20514;-45
2022/06/01 04:56:27;;;;;;;;;;;13.70;99.90;;;;;;4193707;28;20052;-46
2022/06/01 04:58:48;;;;;;;25.90;2.97;;;13.70;99.90;;;;;;4177150;28;20038;-45
2022/06/01 05:01:09;;;;;;;50.92;3.63;;;13.80;99.90;;;;;;4188339;28;20051;-47
2022/06/01 05:03:29;;;;;;;52.40;4.72;;;13.80;99.90;;;;;;4193074;28;20066;-44
2022/06/01 05:05:50;;;;;;;3.05;2.85;;;13.90;99.90;;;;;;4188465;28;20064;-44
2022/06/01 05:08:13;;;;;;;11.23;2.75;;;14.00;99.90;;;;;;4182638;28;20416;-45
2022/06/01 05:10:35;;;;;;;15.50;3.55;;;14.10;99.90;;;;;;4187244;28;20133;-44
2022/06/01 05:12:56;;;;;;;21.30;4.20;;;14.10;99.90;;;;;;4180720;28;20047;-46
2022/06/01 05:15:18;;;;;;;4.13;3.35;;;14.20;99.90;;;;;;4193468;28;20089;-45
2022/06/01 05:17:38;;;;;;;29.40;4.60;;;14.20;99.90;;;;;;4187745;28;20098;-44
2022/06/01 05:20:00;;;;;;;5.85;3.70;;;14.30;99.90;;;;;;4192716;28;20051;-47
2022/06/01 05:22:21;;;;;;;3.95;3.63;;;14.40;99.90;;;;;;4193213;28;20083;-44
2022/06/01 05:24:41;;;;;;;4.60;2.60;;;14.40;99.90;;;;;;4192154;28;20110;-48
2022/06/01 05:27:02;;;;;;;27.33;3.08;;;14.40;99.90;;;;;;4192075;28;20143;-45
2022/06/01 05:29:23;;;;;;;9.00;3.40;;;14.40;99.90;;;;;;4190847;28;20191;-44
2022/06/01 05:31:48;;;;;;;7.03;2.83;;;14.50;99.90;;;;;;4184483;28;20048;-44
2022/06/01 05:34:09;;;;;;;2.58;2.47;;;14.50;99.90;;;;;;4186480;28;20455;-45
2022/06/01 05:36:29;;;;;;;25.13;4.53;;;14.50;99.90;;;;;;4196083;28;20121;-44
2022/06/01 05:38:50;;;;;;;14.90;2.45;;;14.60;99.90;;;;;;4194888;28;20056;-43
2022/06/01 05:41:11;;;;;;;3.20;3.00;;;14.60;99.90;;;;;;4184698;28;20059;-44
2022/06/01 05:43:33;;;;;;;3.05;2.85;;;14.70;99.90;;;;;;4185967;28;20055;-45
2022/06/01 05:45:55;;;;;;;;;;;14.90;99.90;;;;;;4196559;28;20106;-45
2022/06/01 05:48:18;;;;;;;2.70;2.25;;;15.00;99.90;;;;;;4196374;28;19993;-44
2022/06/01 05:50:39;;;;;;;;;;;15.10;99.90;;;;;;4195720;28;20421;-45
2022/06/01 05:53:00;;;;;;;4.30;2.60;;;15.10;99.90;;;;;;4191965;28;20015;-44
2022/06/01 05:55:21;;;;;;;6.68;2.20;;;15.00;99.90;;;;;;4207723;28;20050;-44
2022/06/01 05:57:42;;;;;;;2.17;2.00;;;15.00;99.90;;;;;;4208205;28;20569;-45
2022/06/01 06:00:10;;;;;;;2.03;1.92;;;15.00;99.90;;;;;;4194163;28;20178;-45
2022/06/01 06:02:31;;;;;;;3.17;2.25;;;14.90;99.90;;;;;;4179332;28;20050;-44
2022/06/01 06:04:52;;;;;;;3.65;2.50;;;14.90;99.90;;;;;;4189826;28;20106;-44
2022/06/01 06:07:13;;;;;;;2.45;2.35;;;15.10;99.90;;;;;;4195446;28;20048;-45
2022/06/01 06:09:33;;;;;;;2.30;2.08;;;15.30;99.90;;;;;;4195693;28;20110;-44
2022/06/01 06:11:54;;;;;;;4.63;1.98;;;15.40;99.90;;;;;;4189289;28;20052;-44
2022/06/01 06:14:15;;;;;;;4.05;2.08;;;15.60;99.90;;;;;;4194486;28;20158;-45
2022/06/01 06:16:43;;;;;;;2.15;2.05;;;15.70;99.90;;;;;;4194522;28;20135;-44
2022/06/01 06:19:05;;;;;;;1.42;1.33;;;15.80;99.90;;;;;;4179078;28;20052;-44
2022/06/01 06:21:28;;;;;;;5.32;2.30;;;15.90;99.90;;;;;;4193841;28;20574;-45
2022/06/01 06:23:53;;;;;;;2.70;1.83;;;16.10;99.90;;;;;;4195558;28;20400;-44
2022/06/01 06:26:14;;;;;;;2.95;2.63;;;16.30;99.90;;;;;;4195654;28;20137;-45
2022/06/01 06:28:35;;;;;;;2.00;1.50;;;16.40;99.90;;;;;;4195643;28;20059;-44
2022/06/01 06:30:56;;;;;;;2.97;1.60;;;16.50;99.90;;;;;;4195337;28;20067;-45
2022/06/01 06:33:17;;;;;;;1.30;1.20;;;16.60;99.90;;;;;;4195257;28;20055;-45
2022/06/01 06:35:38;;;;;;;3.00;1.38;;;16.90;99.90;;;;;;4195472;28;20511;-45
2022/06/01 06:37:59;;;;;;;1.90;1.42;;;17.00;99.90;;;;;;4195463;28;20581;-46
2022/06/01 06:40:21;;;;;;;1.40;1.30;;;17.00;99.90;;;;;;4195499;28;20047;-44
2022/06/01 06:42:42;;;;;;;1.10;1.10;;;17.40;99.90;;;;;;4193848;28;20052;-44
2022/06/01 06:45:04;;;;;;;1.70;1.13;;;17.70;99.90;;;;;;4179073;28;20063;-44
2022/06/01 06:47:27;;;;;;;1.65;0.90;;;17.60;99.90;;;;;;4195082;28;20060;-45
2022/06/01 06:49:47;;;;;;;2.08;1.00;;;17.60;99.90;;;;;;4195042;28;20535;-44
2022/06/01 06:52:08;;;;;;;2.30;0.80;;;17.80;99.90;;;;;;4195389;28;20419;-45
2022/06/01 06:54:29;;;;;;;1.50;0.90;;;17.90;99.90;;;;;;4195440;28;20102;-44
2022/06/01 06:56:49;;;;;;;1.60;0.90;;;18.00;99.90;;;;;;4178604;28;20568;-44
2022/06/01 06:59:15;;;;;;;1.88;0.90;;;18.10;99.90;;;;;;4202161;28;20255;-44
2022/06/01 07:01:36;;;;;;;1.83;1.00;;;18.10;99.90;;;;;;4205016;28;20538;-47
2022/06/01 07:03:57;;;;;;;1.85;0.90;;;18.20;99.90;;;;;;4195326;28;20050;-44
2022/06/01 07:06:18;;;;;;;2.47;0.80;;;18.30;99.90;;;;;;4178787;28;20055;-45
2022/06/01 07:08:45;;;;;;;1.20;1.10;;;18.90;99.90;;;;;;4192498;28;20131;-44
2022/06/01 07:11:06;;;;;;;2.97;0.82;;;18.90;99.90;;;;;;4194770;28;20446;-45
2022/06/01 07:13:28;;;;;;;4.82;1.00;;;19.20;99.90;;;;;;4194486;28;20051;-46
2022/06/01 07:15:59;;;;;;;2.55;1.08;;;19.30;99.90;;;;;;4178145;28;20133;-44
2022/06/01 07:18:21;;;;;;;0.70;0.70;;;19.70;99.90;;;;;;4190463;28;20565;-44
2022/06/01 07:20:41;;;;;;;2.65;0.90;;;19.70;99.90;;;;;;4194822;28;20055;-45
2022/06/01 07:23:02;;;;;;;1.52;0.80;;;19.90;99.90;;;;;;4194668;28;20059;-45
2022/06/01 07:25:28;;;;;;;5.47;0.85;;;19.90;99.90;;;;;;4178238;28;20115;-45
2022/06/01 07:27:49;;;;;;;2.45;1.27;;;20.00;99.90;;;;;;4189714;28;20146;-45
2022/06/01 07:30:11;;;;;;;0.85;0.80;;;20.20;99.90;;;;;;4194812;28;20051;-45
2022/06/01 07:32:32;;;;;;;2.53;0.85;;;20.30;99.90;;;;;;4194200;28;20056;-45
2022/06/01 07:34:53;;;;;;;4.32;1.13;;;20.40;99.90;;;;;;4177834;28;20059;-44
2022/06/01 07:45:12;;;;;;;4.70;0.93;;;21.60;99.90;;;;;;4192176;28;20148;-44
2022/06/01 07:47:33;;;;;;;5.75;0.70;;;21.60;99.90;;;;;;4194198;28;20513;-44
2022/06/01 07:50:14;;;;;;;2.95;1.00;;;21.70;99.90;;;;;;4193802;28;20627;-44
2022/06/01 07:52:54;;;;;;;2.80;0.90;;;21.80;99.90;;;;;;4193823;28;20059;-46
2022/06/01 07:55:16;;;;;;;1.85;0.80;;;22.00;99.90;;;;;;4193827;28;20409;-45
2022/06/01 07:57:36;;;;;;;1.15;0.88;;;22.40;99.90;;;;;;4193949;28;20075;-44
2022/06/01 07:59:57;;;;;;;3.00;0.95;;;22.60;99.90;;;;;;4193877;28;20052;-45
2022/06/01 08:02:18;;;;;;;2.97;0.70;;;22.60;99.90;;;;;;4193706;28;20090;-44
2022/06/01 08:04:39;;;;;;;2.55;0.82;;;22.70;99.90;;;;;;4194142;28;20098;-46
2022/06/01 08:07:05;;;;;;;1.63;0.80;;;23.30;99.90;;;;;;4177806;28;20566;-44
2022/06/01 08:09:26;;;;;;;2.67;0.88;;;23.50;99.90;;;;;;4194102;28;20056;-45
2022/06/01 08:14:26;;;;;;;1.13;0.98;;;23.20;99.90;;;;;;4193905;28;20059;-44
2022/06/01 08:16:46;;;;;;;3.33;0.90;;;23.40;99.90;;;;;;4193733;28;20039;-45
2022/06/01 08:19:09;;;;;;;5.63;1.00;;;23.40;99.90;;;;;;4192704;28;20054;-44
2022/06/01 08:21:32;;;;;;;3.83;0.70;;;23.40;99.90;;;;;;4193964;28;20047;-45
2022/06/01 08:23:53;;;;;;;3.97;0.80;;;23.80;99.90;;;;;;4192975;28;20507;-44
2022/06/01 08:26:14;;;;;;;3.45;0.70;;;23.80;99.90;;;;;;4193940;28;20118;-45
2022/06/01 08:28:35;;;;;;;3.50;0.70;;;23.60;99.90;;;;;;4192602;28;20090;-44
2022/06/01 08:30:55;;;;;;;4.32;0.60;;;24.00;99.90;;;;;;4193945;28;20043;-44
2022/06/01 08:33:17;;;;;;;3.47;0.70;;;24.00;99.90;;;;;;4193736;28;20062;-43
2022/06/01 08:35:41;;;;;;;2.25;0.70;;;23.90;99.90;;;;;;4176831;28;20444;-45
2022/06/01 08:38:03;;;;;;;2.83;0.60;;;24.20;99.90;;;;;;4188579;28;20098;-44
2022/06/01 08:40:48;;;;;;;2.38;0.55;;;24.30;99.90;;;;;;4193498;28;20050;-44
2022/06/01 08:43:12;;;;;;;2.42;0.60;;;24.60;99.90;;;;;;4193369;28;20055;-46
2022/06/01 08:45:34;;;;;;;2.95;0.63;;;24.70;99.90;;;;;;4193437;28;20132;-44
2022/06/01 08:47:57;;;;;;;6.40;0.60;;;24.70;99.90;;;;;;4193824;28;20106;-44
2022/06/01 08:50:27;;;;;;;7.13;0.95;;;24.80;99.90;;;;;;4193357;28;20131;-45
2022/06/01 08:52:48;;;;;;;1.38;0.55;;;24.70;99.90;;;;;;4193617;28;20605;-45
2022/06/01 08:55:09;;;;;;;2.85;0.70;;;25.10;99.90;;;;;;4193706;28;20071;-45
2022/06/01 08:57:47;;;;;;;3.65;0.60;;;24.80;99.90;;;;;;4192288;28;20195;-45
2022/06/01 09:00:17;;;;;;;4.50;0.60;;;24.80;99.90;;;;;;4193439;28;20094;-46
2022/06/01 09:02:43;;;;;;;0.90;0.60;;;24.30;99.90;;;;;;4193303;28;20044;-45
2022/06/01 09:05:43;;;;;;;1.50;0.50;;;24.90;99.90;;;;;;4193165;28;20542;-48
2022/06/01 09:08:35;;;;;;;3.55;0.70;;;25.10;99.90;;;;;;4189598;28;20129;-45
2022/06/01 09:11:13;;;;;;;5.20;0.65;;;25.20;99.90;;;;;;4181952;28;20196;-46
2022/06/01 09:13:57;;;;;;;1.67;0.80;;;25.70;99.20;;;;;;4196300;28;20086;-44
2022/06/01 09:16:29;;;;;;;0.85;0.52;;;25.40;98.90;;;;;;4196331;28;20071;-44
2022/06/01 09:18:52;;;;;;;1.40;0.60;;;25.80;99.90;;;;;;4195945;28;20076;-45
2022/06/01 09:24:00;;;;;;;1.10;0.50;;;25.90;99.90;;;;;;4196671;28;20094;-44
2022/06/01 09:26:29;;;;;;;1.48;0.40;;;26.00;99.50;;;;;;4196149;28;20062;-45
2022/06/01 09:28:54;;;;;;;3.85;0.75;;;26.20;99.50;;;;;;4196610;28;20059;-45
2022/06/01 09:31:22;;;;;;;6.13;0.60;;;26.10;99.90;;;;;;4196342;28;20063;-46
2022/06/01 09:33:43;;;;;;;1.33;0.50;;;25.90;99.90;;;;;;4196662;28;20098;-45
2022/06/01 09:36:07;;;;;;;1.75;0.50;;;26.30;99.20;;;;;;4191113;28;20166;-47
2022/06/01 09:38:54;;;;;;;3.42;0.50;;;26.60;98.60;;;;;;4185506;28;20432;-47
2022/06/01 09:41:21;;;;;;;1.52;0.47;;;26.80;98.30;;;;;;4194377;28;20055;-46
2022/06/01 09:43:59;;;;;;;1.40;0.55;;;27.10;99.60;;;;;;4195840;28;20047;-44
2022/06/01 09:46:33;;;;;;;1.67;0.40;;;27.30;98.50;;;;;;4195221;28;20106;-45
2022/06/01 09:48:54;;;;;;;2.25;0.50;;;27.00;96.70;;;;;;4195225;28;20078;-45
2022/06/01 09:51:21;;;;;;;0.70;0.40;;;26.60;96.90;;;;;;4191654;28;20762;-45
2022/06/01 09:53:46;;;;;;;0.68;0.40;;;26.60;98.90;;;;;;4186053;28;20114;-45
2022/06/01 09:56:08;;;;;;;0.60;0.50;;;26.20;96.60;;;;;;4192687;28;20051;-45
2022/06/01 10:06:52;;;;;;;1.60;0.80;;;27.10;98.40;;;;;;4190817;28;20522;-45
2022/06/01 10:09:19;;;;;;;1.02;0.57;;;27.40;97.60;;;;;;4191600;28;20098;-46
2022/06/01 10:11:45;;;;;;;1.25;0.50;;;27.10;99.00;;;;;;4191635;28;20046;-46
2022/06/01 10:14:22;;;;;;;3.15;0.55;;;26.90;97.60;;;;;;4179141;28;20048;-44
2022/06/01 10:17:04;;;;;;;0.88;0.50;;;26.90;96.60;;;;;;4178909;28;20052;-44
2022/06/01 10:19:43;;;;;;;0.63;0.50;;;27.00;99.50;;;;;;4194526;28;20105;-45
2022/06/01 10:22:04;;;;;;;0.47;0.43;;;27.40;96.80;;;;;;4202668;28;20589;-45
2022/06/01 10:24:55;;;;;;;3.97;0.50;;;27.80;98.60;;;;;;4193765;28;20071;-45
2022/06/01 10:27:21;;;;;;;1.90;0.60;;;27.90;98.90;;;;;;4194556;28;20140;-45
2022/06/01 10:29:50;;;;;;;1.27;0.50;;;27.90;97.30;;;;;;4194886;28;20098;-46
2022/06/01 10:32:23;;;;;;;1.83;0.60;;;28.10;98.20;;;;;;4194061;28;20055;-45
2022/06/01 10:35:11;;;;;;;0.93;0.50;;;27.70;96.70;;;;;;4193029;28;20129;-45
2022/06/01 10:37:37;;;;;;;1.60;0.40;;;27.10;98.30;;;;;;4189314;28;20420;-45
2022/06/01 10:40:11;;;;;;;3.10;0.40;;;27.70;98.10;;;;;;4194730;28;20102;-45
2022/06/01 10:43:18;;;;;;;0.40;0.40;;;28.10;98.50;;;;;;4192044;28;20075;-46
2022/06/01 10:45:53;;;;;;;2.47;0.40;;;28.20;98.30;;;;;;4189891;28;20111;-45
2022/06/01 10:48:28;;;;;;;2.75;0.40;;;28.50;93.80;;;;;;4180715;28;20697;-45
2022/06/01 10:51:10;;;;;;;1.00;0.60;;;28.70;95.10;;;;;;4191469;28;20399;-45
2022/06/01 10:53:46;;;;;;;1.75;0.50;;;28.10;93.20;;;;;;4185987;28;20090;-45
2022/06/01 10:56:07;;;;;;;0.52;0.52;;;27.60;93.40;;;;;;4194169;28;20639;-45
2022/06/01 10:58:30;;;;;;;1.83;0.40;;;27.80;94.00;;;;;;4190911;28;20631;-44
2022/06/01 11:01:09;;;;;;;0.80;0.50;;;28.30;92.80;;;;;;4192378;28;20060;-45
2022/06/01 11:04:01;;;;;;;0.40;0.40;;;28.20;92.50;;;;;;4189886;28;20051;-45
2022/06/01 11:07:05;;;;;;;0.77;0.40;;;28.20;92.40;;;;;;4190536;28;20059;-45
2022/06/01 11:09:55;;;;;;;1.77;0.60;;;28.30;92.40;;;;;;4190177;28;20527;-46
2022/06/01 11:12:25;;;;;;;0.77;0.50;;;28.10;93.10;;;;;;4194678;28;20078;-47
2022/06/01 11:15:23;;;;;;;0.77;0.40;;;28.50;94.30;;;;;;4194633;28;20063;-45
2022/06/01 11:18:07;;;;;;;2.17;0.50;;;28.60;92.00;;;;;;4183697;28;20602;-44
2022/06/01 11:20:36;;;;;;;1.00;0.30;;;29.00;95.80;;;;;;4177636;28;20106;-45
2022/06/01 11:26:23;;;;;;;2.22;0.63;;;28.90;94.40;;;;;;4179171;28;20056;-92
2022/06/01 11:29:25;;;;;;;1.88;0.40;;;29.50;93.80;;;;;;4180571;28;20060;-91
2022/06/01 11:31:54;;;;;;;0.40;0.40;;;29.80;93.20;;;;;;4159059;28;20107;-90
2022/06/01 11:34:48;;;;;;;5.50;0.50;;;29.10;92.20;;;;;;4166210;28;20056;-91
2022/06/01 11:37:45;;;;;;;2.75;0.75;;;29.00;92.50;;;;;;4100580;28;20536;-92
2022/06/01 11:40:15;;;;;;;0.40;0.40;;;29.20;92.00;;;;;;4047581;29;20060;-86
2022/06/01 11:42:55;;;;;;;0.50;0.40;;;29.80;91.20;;;;;;4048468;29;20626;-87
2022/06/01 11:45:21;;;;;;;2.58;0.55;;;29.80;90.50;;;;;;4047433;29;20581;-86
2022/06/01 11:47:52;;;;;;;0.70;0.40;;;29.50;90.40;;;;;;4035491;29;20081;-86
2022/06/01 11:50:24;;;;;;;0.55;0.30;;;29.70;91.60;;;;;;4049837;29;20070;-85
2022/06/01 11:52:53;;;;;;;4.65;0.40;;;29.50;90.40;;;;;;4039550;29;20109;-86
2022/06/01 11:55:36;;;;;;;2.40;0.40;;;29.40;89.80;;;;;;4034493;29;20092;-87
2022/06/01 11:58:07;;;;;;;;;;;28.90;88.90;;;;;;4045892;29;20048;-87
2022/06/01 12:00:52;;;;;;;0.68;0.40;;;29.30;93.10;;;;;;4036076;29;19930;-86
2022/06/01 12:03:17;;;;;;;1.65;0.65;;;30.10;91.60;;;;;;4049142;29;20059;-86
2022/06/01 12:05:54;;;;;;;2.30;0.40;;;29.90;91.00;;;;;;4049298;29;20084;-86
2022/06/01 12:08:24;;;;;;;0.40;0.40;;;29.20;91.30;;;;;;4053996;29;20046;-87
2022/06/01 12:11:00;;;;;;;0.75;0.40;;;29.20;90.30;;;;;;4051613;29;20055;-87
2022/06/01 12:13:36;;;;;;;1.65;0.40;;;29.50;90.40;;;;;;4071284;28;20061;-85
2022/06/01 12:16:20;;;;;;;1.73;0.50;;;29.90;90.20;;;;;;4130072;28;20283;-86
2022/06/01 12:19:11;;;;;;;0.50;0.40;;;30.10;90.70;;;;;;4169163;28;20056;-87
2022/06/01 12:21:54;;;;;;;3.28;0.40;;;30.40;90.00;;;;;;4149339;28;20137;-87
2022/06/01 12:30:02;;;;;;;1.05;0.40;;;29.80;85.70;;;;;;4164073;28;20047;-87
2022/06/01 12:32:23;;;;;;;0.40;0.35;;;30.00;86.60;;;;;;4161440;28;20056;-83
2022/06/01 12:34:52;;;;;;;1.65;0.50;;;30.30;87.10;;;;;;4161284;28;20429;-84
2022/06/01 12:37:30;;;;;;;1.33;0.50;;;30.70;82.60;;;;;;4162760;28;20048;-84
2022/06/01 12:39:56;;;;;;;1.15;0.50;;;30.70;84.20;;;;;;4149317;28;20053;-84
2022/06/01 12:42:22;;;;;;;2.25;0.40;;;30.80;84.00;;;;;;4154054;28;20076;-84
2022/06/01 12:44:47;;;;;;;1.35;0.30;;;30.90;84.20;;;;;;4165595;28;20104;-84
2022/06/01 12:47:07;;;;;;;0.95;0.30;;;31.00;83.70;;;;;;4159889;28;20075;-83
2022/06/01 12:49:30;;;;;;;0.40;0.30;;;31.20;83.20;;;;;;4172456;28;20111;-81
2022/06/01 12:51:56;;;;;;;1.67;0.40;;;31.40;82.10;;;;;;4164723;28;20076;-82
2022/06/01 12:54:32;;;;;;;1.08;0.40;;;31.00;80.40;;;;;;4164324;28;20412;-82
2022/06/01 12:56:53;;;;;;;0.80;0.30;;;30.40;80.20;;;;;;4164328;28;20199;-81
2022/06/01 12:59:14;;;;;;;1.33;0.30;;;30.70;81.80;;;;;;4149698;28;20488;-82
2022/06/01 13:01:35;;;;;;;4.03;0.40;;;30.70;79.90;;;;;;4164544;28;20051;-82
2022/06/01 13:03:58;;;;;;;0.45;0.30;;;30.80;81.60;;;;;;4149699;28;20157;-82
2022/06/01 13:06:23;;;;;;;1.35;0.30;;;30.70;82.00;;;;;;4164478;28;20125;-81
2022/06/01 13:08:43;;;;;;;2.15;0.40;;;30.70;80.90;;;;;;4164618;28;20057;-82
2022/06/01 13:11:32;;;;;;;1.52;0.40;;;30.60;79.90;;;;;;4164741;28;20044;-82
2022/06/01 13:13:57;;;;;;;1.85;0.40;;;30.90;81.50;;;;;;4164236;28;20048;-81
2022/06/01 13:16:21;;;;;;;1.30;0.30;;;30.90;83.20;;;;;;4164465;28;20051;-81
2022/06/01 13:18:45;;;;;;;0.93;0.40;;;30.60;82.80;;;;;;4164166;28;20084;-82
2022/06/01 13:21:32;;;;;;;0.40;0.40;;;30.40;79.90;;;;;;4164386;28;20120;-81
2022/06/01 13:23:59;;;;;;;0.45;0.40;;;30.30;81.80;;;;;;4149541;28;20655;-82